createdAt,value
2019-04-22T00:01:24.816Z,46.50
2019-04-22T00:03:56.564Z,46.70
2019-04-22T00:06:44.337Z,47.20
2019-04-22T00:09:17.413Z,47.50
2019-04-22T00:12:01.861Z,47.90
2019-04-22T00:14:11.688Z,48.60
2019-04-22T00:16:51.905Z,49.70
2019-04-22T00:19:20.865Z,51.00
2019-04-22T00:21:55.188Z,52.20
2019-04-22T00:24:24.289Z,52.80
2019-04-22T00:26:59.978Z,53.50
2019-04-22T00:29:42.471Z,54.40
2019-04-22T00:31:58.949Z,54.90
2019-04-22T00:34:32.432Z,55.30
2019-04-22T00:37:00.660Z,55.70
2019-04-22T00:39:41.952Z,56.20
2019-04-22T00:42:08.005Z,56.70
2019-04-22T00:44:43.220Z,57.00
2019-04-22T00:47:07.349Z,57.70
2019-04-22T00:52:10.404Z,58.60
2019-04-22T00:54:49.519Z,59.00
2019-04-22T00:57:08.667Z,59.30
2019-04-22T00:59:50.837Z,59.50
2019-04-22T01:02:16.436Z,59.50
2019-04-22T01:04:47.577Z,60.30
2019-04-22T01:07:22.773Z,60.70
2019-04-22T01:09:56.537Z,61.10
2019-04-22T01:12:19.665Z,61.50
2019-04-22T01:14:47.508Z,61.50
2019-04-22T01:17:21.250Z,61.90
2019-04-22T01:22:20.679Z,62.20
2019-04-22T01:24:50.288Z,62.60
2019-04-22T01:27:16.383Z,62.70
2019-04-22T01:29:45.056Z,62.90
2019-04-22T01:32:00.413Z,63.10
2019-04-22T01:34:46.064Z,63.80
2019-04-22T01:37:20.215Z,63.70
2019-04-22T01:39:57.040Z,63.90
2019-04-22T01:42:30.220Z,64.00
2019-04-22T01:45:03.336Z,63.80
2019-04-22T01:47:33.092Z,64.20
2019-04-22T01:50:03.908Z,64.10
2019-04-22T01:52:31.091Z,64.00
2019-04-22T01:57:28.484Z,64.60
2019-04-22T01:59:57.608Z,64.60
2019-04-22T02:02:35.404Z,64.60
2019-04-22T02:07:37.055Z,65.20
2019-04-22T02:10:11.093Z,65.00
2019-04-22T02:12:43.372Z,65.00
2019-04-22T02:15:12.236Z,65.10
2019-04-22T02:17:44.836Z,65.00
2019-04-22T02:20:12.121Z,65.20
2019-04-22T02:23:40.299Z,65.00
2019-04-22T02:25:56.476Z,65.20
2019-04-22T02:28:34.248Z,65.80
2019-04-22T02:31:13.934Z,65.00
2019-04-22T02:38:46.630Z,63.80
2019-04-22T02:41:15.971Z,63.70
2019-04-22T02:43:49.237Z,63.40
2019-04-22T02:56:12.143Z,62.70
2019-04-22T02:58:46.980Z,62.10
2019-04-22T03:01:13.455Z,61.80
2019-04-22T03:04:01.160Z,61.70
2019-04-22T03:06:18.322Z,61.70
2019-04-22T03:08:41.943Z,61.60
2019-04-22T03:11:16.816Z,61.80
2019-04-22T03:13:47.322Z,61.90
2019-04-22T03:16:17.511Z,62.10
2019-04-22T03:21:10.608Z,62.30
2019-04-22T03:23:56.256Z,62.50
2019-04-22T03:39:44.935Z,64.10
2019-04-22T03:42:05.638Z,64.00
2019-04-22T03:47:13.696Z,64.60
2019-04-22T03:52:16.308Z,65.20
2019-04-22T03:54:39.989Z,65.30
2019-04-22T04:02:14.881Z,66.50
2019-04-22T04:14:50.830Z,68.40
2019-04-22T04:17:08.898Z,68.70
2019-04-22T04:19:56.331Z,68.70
2019-04-22T04:22:22.142Z,68.80
2019-04-22T04:27:34.304Z,68.90
2019-04-22T04:29:54.746Z,68.70
2019-04-22T04:35:07.286Z,68.40
2019-04-22T04:45:23.767Z,66.60
2019-04-22T04:47:35.338Z,66.00
2019-04-22T04:53:08.365Z,64.20
2019-04-22T04:57:57.626Z,63.20
2019-04-22T05:00:39.573Z,62.90
2019-04-22T05:05:20.305Z,61.20
2019-04-22T05:07:48.370Z,60.70
2019-04-22T05:13:06.730Z,59.80
2019-04-22T05:15:31.545Z,59.40
2019-04-22T05:18:05.926Z,59.30
2019-04-22T05:22:55.857Z,59.00
2019-04-22T05:25:22.254Z,58.70
2019-04-22T05:32:49.155Z,57.80
2019-04-22T05:37:56.614Z,56.80
2019-04-22T05:40:24.566Z,55.60
2019-04-22T05:42:55.949Z,56.10
2019-04-22T05:45:39.953Z,55.70
2019-04-22T05:47:56.229Z,55.70
2019-04-22T05:50:24.555Z,55.50
2019-04-22T05:53:00.743Z,55.70
2019-04-22T05:58:02.949Z,55.20
2019-04-22T06:00:40.393Z,54.90
2019-04-22T06:03:16.638Z,54.90
2019-04-22T06:05:35.855Z,54.60
2019-04-22T06:08:06.645Z,54.50
2019-04-22T06:10:39.439Z,54.40
2019-04-22T06:13:02.161Z,54.30
2019-04-22T06:15:34.507Z,54.10
2019-04-22T06:20:49.773Z,53.90
2019-04-22T06:23:12.409Z,54.00
2019-04-22T06:28:25.225Z,53.60
2019-04-22T06:30:50.280Z,53.50
2019-04-22T06:33:15.284Z,53.40
2019-04-22T06:40:46.997Z,52.80
2019-04-22T06:43:19.891Z,53.10
2019-04-22T06:45:43.607Z,52.70
2019-04-22T06:50:50.211Z,51.60
2019-04-22T06:53:28.205Z,51.20
2019-04-22T06:55:53.831Z,51.00
2019-04-22T06:58:20.135Z,50.60
2019-04-22T07:00:54.707Z,50.70
2019-04-22T07:05:52.437Z,49.90
2019-04-22T07:09:05.976Z,49.20
2019-04-22T07:13:29.127Z,48.90
2019-04-22T07:15:59.474Z,48.20
2019-04-22T07:18:31.472Z,48.00
2019-04-22T07:21:02.777Z,47.90
2019-04-22T07:23:37.546Z,46.50
2019-04-22T07:26:18.788Z,45.70
2019-04-22T07:28:51.982Z,45.60
2019-04-22T07:31:06.701Z,44.80
2019-04-22T07:33:38.027Z,44.50
2019-04-22T07:36:33.526Z,43.60
2019-04-22T07:38:32.814Z,43.00
2019-04-22T07:41:07.032Z,43.30
2019-04-22T07:43:51.649Z,42.60
2019-04-22T07:46:11.341Z,41.90
2019-04-22T07:53:39.239Z,41.00
2019-04-22T07:56:14.354Z,41.30
2019-04-22T07:58:43.305Z,38.90
2019-04-22T08:01:13.999Z,39.20
2019-04-22T08:06:20.292Z,39.10
2019-04-22T08:08:45.627Z,39.10
2019-04-22T08:11:35.135Z,38.90
2019-04-22T08:13:47.206Z,38.50
2019-04-22T08:16:16.434Z,37.70
2019-04-22T08:18:46.046Z,37.50
2019-04-22T08:21:17.821Z,36.30
2019-04-22T08:23:50.894Z,35.00
2019-04-22T08:26:21.958Z,35.20
2019-04-22T08:28:59.379Z,35.00
2019-04-22T08:31:30.050Z,35.10
2019-04-22T08:33:58.219Z,34.60
2019-04-22T08:36:25.599Z,33.50
2019-04-22T08:41:39.209Z,33.20
2019-04-22T08:44:13.378Z,32.80
2019-04-22T08:46:35.179Z,32.30
2019-04-22T08:49:00.733Z,32.30
2019-04-22T08:59:09.864Z,30.00
2019-04-22T09:01:35.823Z,30.70
2019-04-22T09:04:04.099Z,30.60
2019-04-22T09:06:49.418Z,30.40
2019-04-22T09:09:06.502Z,30.50
2019-04-22T09:11:41.779Z,30.30
2019-04-22T09:14:14.045Z,30.00
2019-04-22T09:16:42.689Z,29.80
2019-04-22T09:19:23.846Z,29.10
2019-04-22T09:21:45.707Z,29.40
2019-04-22T09:24:10.542Z,29.30
2019-04-22T09:26:41.936Z,29.30
2019-04-22T09:29:22.453Z,29.70
2019-04-22T09:31:44.468Z,29.40
2019-04-22T09:34:18.564Z,28.60
2019-04-22T09:36:50.220Z,28.30
2019-04-22T09:39:21.802Z,28.40
2019-04-22T09:44:15.310Z,29.10
2019-04-22T09:51:54.072Z,28.00
2019-04-22T09:54:29.700Z,27.70
2019-04-22T09:59:20.199Z,27.60
2019-04-22T10:02:08.159Z,27.40
2019-04-22T10:04:25.370Z,27.00
2019-04-22T10:06:54.659Z,26.20
2019-04-22T10:09:42.842Z,26.10
2019-04-22T10:11:56.335Z,26.40
2019-04-22T10:14:32.012Z,26.90
2019-04-22T10:17:00.030Z,27.20
2019-04-22T10:19:30.042Z,26.40
2019-04-22T10:22:10.503Z,26.40
2019-04-22T10:24:33.029Z,26.40
2019-04-22T10:27:01.508Z,26.10
2019-04-22T10:29:41.577Z,25.90
2019-04-22T10:32:06.871Z,25.40
2019-04-22T10:34:26.291Z,25.30
2019-04-22T10:36:50.448Z,25.30
2019-04-22T10:39:16.064Z,25.30
2019-04-22T10:41:46.393Z,25.40
2019-04-22T10:44:17.052Z,25.60
2019-04-22T10:46:46.404Z,25.20
2019-04-22T10:49:16.010Z,25.50
2019-04-22T10:51:46.520Z,25.80
2019-04-22T10:54:15.912Z,25.20
2019-04-22T10:56:45.270Z,24.90
2019-04-22T10:59:14.453Z,25.30
2019-04-22T11:01:44.434Z,25.70
2019-04-22T11:04:14.993Z,24.90
2019-04-22T11:06:52.455Z,24.90
2019-04-22T11:09:16.307Z,25.10
2019-04-22T11:11:55.844Z,24.70
2019-04-22T11:14:16.888Z,24.90
2019-04-22T11:16:47.545Z,24.90
2019-04-22T11:19:17.333Z,24.50
2019-04-22T11:21:57.654Z,24.80
2019-04-22T11:24:18.838Z,24.90
2019-04-22T11:26:49.317Z,24.40
2019-04-22T11:29:19.556Z,25.00
2019-04-22T11:31:50.333Z,25.40
2019-04-22T11:34:19.668Z,25.60
2019-04-22T11:36:50.390Z,25.60
2019-04-22T11:39:19.818Z,26.20
2019-04-22T11:41:49.983Z,26.50
2019-04-22T11:44:19.299Z,25.60
2019-04-22T11:46:49.539Z,26.00
2019-04-22T11:49:18.793Z,25.50
2019-04-22T11:51:49.874Z,25.60
2019-04-22T11:54:19.289Z,25.40
2019-04-22T11:56:50.482Z,25.40
2019-04-22T11:59:20.559Z,25.00
2019-04-22T12:01:51.025Z,24.80
2019-04-22T12:04:22.006Z,25.10
2019-04-22T12:06:51.729Z,24.80
2019-04-22T12:09:21.537Z,25.30
2019-04-22T12:11:51.733Z,25.20
2019-04-22T12:14:22.334Z,25.00
2019-04-22T12:16:53.090Z,25.00
2019-04-22T12:19:23.191Z,25.30
2019-04-22T12:21:53.239Z,25.10
2019-04-22T12:24:25.064Z,25.50
2019-04-22T12:26:56.162Z,25.50
2019-04-22T12:29:26.604Z,25.70
2019-04-22T12:31:57.673Z,26.20
2019-04-22T12:34:27.481Z,26.20
2019-04-22T12:36:56.638Z,26.00
2019-04-22T12:39:27.633Z,26.70
2019-04-22T12:41:58.433Z,26.50
2019-04-22T12:44:30.595Z,26.30
2019-04-22T12:47:01.751Z,26.90
2019-04-22T12:49:32.111Z,27.00
2019-04-22T12:52:03.013Z,27.20
2019-04-22T12:54:33.053Z,27.40
2019-04-22T12:57:03.803Z,27.80
2019-04-22T12:59:33.206Z,27.70
2019-04-22T13:02:03.048Z,27.60
2019-04-22T13:04:32.370Z,27.50
2019-04-22T13:07:01.831Z,27.50
2019-04-22T13:09:31.595Z,28.40
2019-04-22T13:12:01.278Z,27.40
2019-04-22T13:14:30.721Z,27.80
2019-04-22T13:17:00.001Z,28.00
2019-04-22T13:19:30.248Z,28.20
2019-04-22T13:22:00.754Z,28.50
2019-04-22T13:24:30.168Z,28.80
2019-04-22T13:26:59.317Z,29.30
2019-04-22T13:29:28.598Z,29.30
2019-04-22T13:31:58.590Z,29.30
2019-04-22T13:34:37.406Z,29.40
2019-04-22T13:36:59.008Z,29.20
2019-04-22T13:39:29.351Z,29.50
2019-04-22T13:42:03.795Z,29.50
2019-04-22T13:44:29.325Z,29.90
2019-04-22T13:47:17.022Z,29.30
2019-04-22T13:50:06.056Z,29.50
2019-04-22T13:52:40.291Z,30.30
2019-04-22T13:54:53.405Z,30.00
2019-04-22T13:57:20.076Z,30.30
2019-04-22T13:59:41.107Z,29.70
2019-04-22T14:02:19.417Z,29.30
2019-04-22T14:04:50.518Z,29.10
2019-04-22T14:07:20.874Z,29.70
2019-04-22T14:09:50.680Z,29.90
2019-04-22T14:12:21.717Z,29.20
2019-04-22T14:14:52.627Z,30.20
2019-04-22T14:17:22.874Z,30.70
2019-04-22T14:19:52.823Z,31.70
2019-04-22T14:22:22.090Z,31.60
2019-04-22T14:24:52.385Z,30.90
2019-04-22T14:27:30.602Z,30.80
2019-04-22T14:29:53.615Z,31.70
2019-04-22T14:32:27.469Z,32.40
2019-04-22T14:34:55.199Z,32.00
2019-04-22T14:37:24.628Z,31.90
2019-04-22T14:39:53.867Z,32.60
2019-04-22T14:42:45.659Z,32.90
2019-04-22T14:45:26.085Z,33.10
2019-04-22T14:47:53.981Z,33.30
2019-04-22T14:50:17.848Z,34.30
2019-04-22T14:52:45.736Z,34.80
2019-04-22T14:55:05.972Z,34.60
2019-04-22T14:57:28.561Z,35.30
2019-04-22T14:59:59.794Z,35.40
2019-04-22T15:02:29.782Z,35.40
2019-04-22T15:05:00.556Z,35.10
2019-04-22T15:07:30.800Z,35.70
2019-04-22T15:10:00.286Z,35.30
2019-04-22T15:12:36.761Z,35.20
2019-04-22T15:15:03.576Z,35.80
2019-04-22T15:17:40.822Z,35.40
2019-04-22T15:20:32.065Z,35.60
2019-04-22T15:23:02.359Z,35.30
2019-04-22T15:25:32.539Z,34.60
2019-04-22T15:28:02.023Z,34.90
2019-04-22T15:30:31.199Z,35.10
2019-04-22T15:33:01.214Z,35.70
2019-04-22T15:35:31.385Z,36.60
2019-04-22T15:38:01.505Z,35.90
2019-04-22T15:40:31.068Z,36.20
2019-04-22T15:43:00.550Z,36.90
2019-04-22T15:45:30.639Z,36.70
2019-04-22T15:48:00.051Z,37.30
2019-04-22T15:50:30.694Z,37.80
2019-04-22T15:53:02.525Z,38.20
2019-04-22T15:55:32.346Z,38.60
2019-04-22T15:58:01.979Z,38.00
2019-04-22T16:00:42.290Z,38.20
2019-04-22T16:03:06.046Z,36.90
2019-04-22T16:05:34.095Z,36.40
2019-04-22T16:08:03.439Z,37.50
2019-04-22T16:10:33.798Z,37.60
2019-04-22T16:13:09.412Z,37.40
2019-04-22T16:15:34.339Z,36.70
2019-04-22T16:18:05.292Z,37.40
2019-04-22T16:20:34.538Z,38.70
2019-04-22T16:23:32.222Z,39.10
2019-04-22T16:26:20.253Z,39.70
2019-04-22T16:28:59.611Z,39.10
2019-04-22T16:31:33.613Z,40.60
2019-04-22T16:34:07.685Z,39.80
2019-04-22T16:36:36.573Z,40.60
2019-04-22T16:39:08.907Z,41.50
2019-04-22T16:41:38.970Z,42.50
2019-04-22T16:44:10.316Z,43.80
2019-04-22T16:46:39.356Z,44.60
2019-04-22T16:49:11.636Z,44.90
2019-04-22T16:51:42.270Z,44.60
2019-04-22T16:54:11.774Z,45.10
2019-04-22T16:56:41.779Z,45.60
2019-04-22T16:59:11.073Z,45.50
2019-04-22T17:01:59.114Z,45.30
2019-04-22T17:04:48.621Z,45.60
2019-04-22T17:07:20.423Z,45.50
2019-04-22T17:09:50.067Z,45.60
2019-04-22T17:12:19.676Z,46.10
2019-04-22T17:14:54.779Z,46.40
2019-04-22T17:17:20.194Z,45.60
2019-04-22T17:19:51.342Z,46.50
2019-04-22T17:22:21.736Z,46.10
2019-04-22T17:24:56.286Z,46.30
2019-04-22T17:27:26.617Z,47.00
2019-04-22T17:29:56.933Z,47.60
2019-04-22T17:32:28.798Z,46.90
2019-04-22T17:34:59.255Z,47.40
2019-04-22T17:37:32.265Z,47.80
2019-04-22T17:40:19.637Z,47.90
2019-04-22T17:42:51.888Z,47.40
2019-04-22T17:45:54.063Z,48.30
2019-04-22T17:48:50.641Z,48.90
2019-04-22T17:51:29.901Z,49.50
2019-04-22T17:53:54.720Z,49.90
2019-04-22T17:56:21.651Z,50.40
2019-04-22T17:58:54.338Z,50.70
2019-04-22T18:01:25.540Z,51.40
2019-04-22T18:03:43.626Z,51.80
2019-04-22T18:06:10.995Z,52.50
2019-04-22T18:09:01.849Z,52.80
2019-04-22T18:11:43.009Z,52.70
2019-04-22T18:14:25.643Z,53.00
2019-04-22T18:16:38.551Z,54.00
2019-04-22T18:19:11.841Z,54.70
2019-04-22T18:21:35.057Z,54.80
2019-04-22T18:24:04.839Z,55.40
2019-04-22T18:26:43.623Z,55.70
2019-04-22T18:29:17.746Z,56.00
2019-04-22T18:31:35.614Z,56.50
2019-04-22T18:34:11.492Z,56.80
2019-04-22T18:36:45.724Z,57.10
2019-04-22T18:39:27.256Z,57.60
2019-04-22T18:41:51.951Z,58.20
2019-04-22T18:44:28.300Z,58.70
2019-04-22T18:46:52.395Z,58.90
2019-04-22T18:49:28.052Z,59.50
2019-04-22T18:52:15.766Z,60.30
2019-04-22T18:54:57.070Z,61.10
2019-04-22T18:57:31.035Z,61.90
2019-04-22T18:59:53.888Z,62.60
2019-04-22T19:02:22.937Z,63.10
2019-04-22T19:04:59.934Z,64.70
2019-04-22T19:07:42.510Z,65.20
2019-04-22T19:10:17.665Z,65.70
2019-04-22T19:12:58.763Z,65.90
2019-04-22T19:15:16.339Z,66.20
2019-04-22T19:17:56.474Z,66.40
2019-04-22T19:20:23.817Z,66.70
2019-04-22T19:22:51.777Z,66.80
2019-04-22T19:25:11.674Z,67.30
2019-04-22T19:27:46.698Z,67.50
2019-04-22T19:30:26.415Z,67.80
2019-04-22T19:32:51.512Z,68.20
2019-04-22T19:35:19.311Z,68.50
2019-04-22T19:37:45.121Z,68.50
2019-04-22T19:40:30.621Z,68.70
2019-04-22T19:43:02.471Z,68.80
2019-04-22T19:45:26.542Z,69.00
2019-04-22T19:48:06.582Z,69.30
2019-04-22T19:50:35.058Z,69.60
2019-04-22T19:53:04.936Z,70.10
2019-04-22T19:55:33.337Z,70.20
2019-04-22T19:58:01.761Z,70.30
2019-04-22T20:00:56.269Z,70.30
2019-04-22T20:04:13.642Z,70.30
2019-04-22T20:06:55.180Z,69.90
2019-04-22T20:09:32.781Z,70.50
2019-04-22T20:11:57.621Z,70.60
2019-04-22T20:14:28.098Z,70.90
2019-04-22T20:16:54.180Z,70.90
2019-04-22T20:19:39.779Z,71.20
2019-04-22T20:22:03.391Z,71.60
2019-04-22T20:24:18.805Z,71.60
2019-04-22T20:27:04.574Z,71.70
2019-04-22T20:29:37.849Z,71.60
2019-04-22T20:32:05.398Z,71.90
2019-04-22T20:34:39.498Z,71.90
2019-04-22T20:37:10.196Z,71.90
2019-04-22T20:42:26.655Z,72.20
2019-04-22T20:44:39.704Z,72.20
2019-04-22T20:47:09.148Z,72.30
2019-04-22T20:49:41.475Z,72.30
2019-04-22T20:52:22.317Z,72.00
2019-04-22T20:54:41.493Z,72.20
2019-04-22T20:57:10.930Z,72.20
2019-04-22T20:59:44.258Z,72.30
2019-04-22T21:02:06.619Z,72.30
2019-04-22T21:04:38.225Z,72.70
2019-04-22T21:07:19.026Z,72.90
2019-04-22T21:09:43.114Z,72.80
2019-04-22T21:12:16.735Z,73.00
2019-04-22T21:14:54.903Z,73.00
2019-04-22T21:17:17.134Z,73.00
2019-04-22T21:20:01.500Z,72.90
2019-04-22T21:22:22.124Z,72.60
2019-04-22T21:24:49.342Z,73.00
2019-04-22T21:27:29.073Z,73.00
2019-04-22T21:29:49.639Z,73.20
2019-04-22T21:32:25.176Z,73.10
2019-04-22T21:34:59.907Z,73.00
2019-04-22T21:37:31.916Z,73.20
2019-04-22T21:39:54.490Z,73.30
2019-04-22T21:42:28.569Z,73.40
2019-04-22T21:44:58.648Z,73.30
2019-04-22T21:47:35.017Z,73.40
2019-04-22T21:50:24.120Z,73.40
2019-04-22T21:52:32.064Z,73.30
2019-04-22T21:55:07.075Z,73.60
2019-04-22T21:57:52.652Z,73.60
2019-04-22T22:00:25.036Z,73.60
2019-04-22T22:02:55.898Z,73.40
2019-04-22T22:05:12.550Z,73.70
2019-04-22T22:07:32.569Z,73.70
2019-04-22T22:10:22.995Z,73.80
2019-04-22T22:12:57.391Z,73.70
2019-04-22T22:15:20.977Z,73.70
2019-04-22T22:17:52.685Z,73.50
2019-04-22T22:20:21.073Z,73.50
2019-04-22T22:23:00.665Z,73.60
2019-04-22T22:25:24.001Z,73.60
2019-04-22T22:28:00.944Z,73.50
2019-04-22T22:30:43.152Z,73.40
2019-04-22T22:33:01.150Z,73.40
2019-04-22T22:35:31.648Z,73.50
2019-04-22T22:38:01.716Z,73.20
2019-04-22T22:40:17.492Z,73.30
2019-04-22T22:42:46.327Z,73.40
2019-04-22T22:45:22.455Z,73.40
2019-04-22T22:48:09.535Z,73.60
2019-04-22T22:50:30.289Z,73.30
2019-04-22T22:53:17.084Z,73.40
2019-04-22T22:55:37.514Z,73.40
2019-04-22T22:58:11.363Z,74.20
2019-04-22T23:00:35.240Z,73.50
2019-04-22T23:05:45.500Z,73.50
2019-04-22T23:08:16.995Z,73.60
2019-04-22T23:10:52.019Z,73.40
2019-04-22T23:13:22.045Z,73.40
2019-04-22T23:15:39.020Z,73.30
2019-04-22T23:17:56.164Z,73.30
2019-04-22T23:20:31.388Z,73.10
2019-04-22T23:23:20.164Z,73.20
2019-04-22T23:25:53.580Z,73.30
2019-04-22T23:28:29.614Z,73.50
2019-04-22T23:31:36.892Z,73.50
2019-04-22T23:34:15.934Z,73.30
2019-04-22T23:37:12.253Z,73.40
2019-04-22T23:39:53.454Z,73.20
2019-04-22T23:42:21.899Z,72.90
2019-04-22T23:44:50.625Z,72.90
2019-04-22T23:47:26.118Z,72.90
2019-04-22T23:50:06.271Z,72.80
2019-04-22T23:52:43.232Z,72.60
2019-04-22T23:55:18.673Z,72.80
2019-04-22T23:57:50.526Z,73.00
